Time;durP1;ratioP1;P1;durP2;ratioP2;P2;SDS_P1;SDS_P2;PMS_P1;PMS_P2;Temp;Humidity;BMP_temperature;BMP_pressure;BME280_temperature;BME280_humidity;BME280_pressure;Samples;Min_cycle;Max_cycle;Signal;HPM_P1;HPM_P2
2023/06/29 00:01:47;;;;;;;8.95;5.53;;;;;;;;;;5038182;28;20517;-69
2023/06/29 00:04:16;;;;;;;7.35;5.78;;;;;;;;;;5050985;28;20029;-69
2023/06/29 00:06:41;;;;;;;17.65;5.80;;;;;;;;;;5028243;28;20034;-70
2023/06/29 00:09:07;;;;;;;13.85;6.40;;;;;;;;;;5041596;28;20078;-68
2023/06/29 00:11:33;;;;;;;9.77;5.93;;;;;;;;;;5039173;28;20045;-69
2023/06/29 00:13:58;;;;;;;8.52;5.57;;;;;;;;;;5041003;28;20029;-69
2023/06/29 00:16:24;;;;;;;8.02;5.70;;;;;;;;;;5021960;28;20048;-69
2023/06/29 00:18:49;;;;;;;10.52;6.28;;;;;;;;;;5037947;28;20025;-70
2023/06/29 00:21:16;;;;;;;10.60;5.85;;;;;;;;;;5025523;28;20110;-69
2023/06/29 00:23:42;;;;;;;14.80;6.50;;;;;;;;;;5054021;28;20040;-69
2023/06/29 00:26:07;;;;;;;9.60;6.15;;;;;;;;;;5054379;28;20395;-69
2023/06/29 00:28:33;;;;;;;14.30;6.45;;;;;;;;;;5038030;28;20090;-68
2023/06/29 00:30:58;;;;;;;18.13;6.50;;;;;;;;;;5054263;28;20062;-69
2023/06/29 00:33:24;;;;;;;7.90;5.72;;;;;;;;;;5029380;28;20033;-68
2023/06/29 00:35:49;;;;;;;11.85;6.15;;;;;;;;;;5036754;28;20053;-69
2023/06/29 00:38:15;;;;;;;13.60;6.47;;;;;;;;;;5046724;28;20048;-70
2023/06/29 00:40:40;;;;;;;14.77;6.95;;;;;;;;;;5033896;28;20041;-69
2023/06/29 00:43:06;;;;;;;8.60;5.95;;;;;;;;;;5047975;28;20459;-69
2023/06/29 00:45:31;;;;;;;9.52;5.72;;;;;;;;;;5038473;28;20132;-69
2023/06/29 00:47:57;;;;;;;12.10;6.22;;;;;;;;;;5038416;28;20053;-70
2023/06/29 00:50:22;;;;;;;17.30;6.70;;;;;;;;;;5058841;28;20044;-69
2023/06/29 00:52:48;;;;;;;13.18;6.78;;;;;;;;;;5044450;28;20033;-70
2023/06/29 00:55:13;;;;;;;14.20;5.78;;;;;;;;;;5057135;28;20029;-69
2023/06/29 00:57:39;;;;;;;6.78;4.90;;;;;;;;;;5022544;28;20026;-69
2023/06/29 01:00:10;;;;;;;10.63;5.80;;;;;;;;;;5039788;28;20075;-70
2023/06/29 01:02:40;;;;;;;8.68;5.50;;;;;;;;;;5050891;28;20034;-70
2023/06/29 01:05:09;;;;;;;8.00;5.22;;;;;;;;;;5030998;28;20029;-69
2023/06/29 01:07:53;;;;;;;7.00;5.22;;;;;;;;;;5057609;28;20059;-70
2023/06/29 01:10:24;;;;;;;7.80;6.05;;;;;;;;;;5040123;28;20044;-69
2023/06/29 01:12:51;;;;;;;9.98;5.20;;;;;;;;;;5039351;28;20538;-69
2023/06/29 01:15:17;;;;;;;9.45;5.70;;;;;;;;;;5039467;28;20041;-69
2023/06/29 01:17:45;;;;;;;12.88;5.60;;;;;;;;;;5059051;28;20025;-70
2023/06/29 01:20:13;;;;;;;12.65;6.07;;;;;;;;;;5041968;28;20090;-69
2023/06/29 01:22:46;;;;;;;14.15;6.30;;;;;;;;;;5039241;28;20406;-69
2023/06/29 01:25:12;;;;;;;8.88;5.80;;;;;;;;;;5021663;28;20565;-68
2023/06/29 01:27:43;;;;;;;15.85;6.75;;;;;;;;;;5023267;28;20082;-69
2023/06/29 01:30:09;;;;;;;9.57;5.80;;;;;;;;;;5046944;28;20035;-69
2023/06/29 01:32:35;;;;;;;13.77;6.07;;;;;;;;;;5036228;28;20031;-69
2023/06/29 01:35:02;;;;;;;9.85;6.70;;;;;;;;;;5042766;28;20093;-69
2023/06/29 01:37:47;;;;;;;10.18;6.70;;;;;;;;;;5059394;28;20028;-69
2023/06/29 01:40:17;;;;;;;8.90;6.07;;;;;;;;;;5051289;28;20037;-69
2023/06/29 01:42:43;;;;;;;14.85;6.05;;;;;;;;;;5021620;28;20040;-69
2023/06/29 01:45:10;;;;;;;9.38;6.13;;;;;;;;;;5055286;28;20037;-69
2023/06/29 01:47:36;;;;;;;13.30;6.25;;;;;;;;;;5050900;28;20037;-69
2023/06/29 01:50:02;;;;;;;12.95;7.22;;;;;;;;;;5019911;28;20032;-70
2023/06/29 01:52:28;;;;;;;7.55;6.13;;;;;;;;;;5058949;28;20067;-70
2023/06/29 01:54:53;;;;;;;17.23;7.32;;;;;;;;;;5024231;28;20609;-69
2023/06/29 01:57:19;;;;;;;15.52;6.80;;;;;;;;;;5038129;28;20021;-70
2023/06/29 01:59:45;;;;;;;13.88;6.63;;;;;;;;;;5040914;28;20021;-69
2023/06/29 02:02:11;;;;;;;14.75;7.22;;;;;;;;;;5040882;28;20051;-69
2023/06/29 02:04:36;;;;;;;10.55;6.88;;;;;;;;;;5050241;28;20017;-69
2023/06/29 02:07:02;;;;;;;11.55;6.68;;;;;;;;;;5055051;28;20040;-70
2023/06/29 02:09:28;;;;;;;11.70;7.75;;;;;;;;;;5039551;28;20021;-69
2023/06/29 02:11:53;;;;;;;14.35;7.70;;;;;;;;;;5043538;28;20036;-69
2023/06/29 02:14:19;;;;;;;16.40;7.47;;;;;;;;;;5032709;28;20071;-70
2023/06/29 02:16:51;;;;;;;14.30;7.55;;;;;;;;;;5030567;28;20472;-69
2023/06/29 02:19:17;;;;;;;13.65;7.45;;;;;;;;;;5037653;28;20141;-70
2023/06/29 02:21:42;;;;;;;11.00;6.97;;;;;;;;;;5039337;28;20581;-70
2023/06/29 02:24:08;;;;;;;12.23;7.53;;;;;;;;;;5036614;28;20029;-69
2023/06/29 02:26:33;;;;;;;14.50;7.75;;;;;;;;;;5034423;28;20084;-70
2023/06/29 02:28:59;;;;;;;9.95;7.22;;;;;;;;;;5037283;28;20045;-69
2023/06/29 02:31:24;;;;;;;12.73;6.80;;;;;;;;;;5048827;28;20041;-70
2023/06/29 02:33:51;;;;;;;12.68;6.70;;;;;;;;;;5022360;28;20044;-70
2023/06/29 02:36:20;;;;;;;13.88;7.55;;;;;;;;;;5049998;28;20033;-70
2023/06/29 02:38:46;;;;;;;13.57;7.50;;;;;;;;;;5050640;28;20029;-70
2023/06/29 02:41:11;;;;;;;10.70;7.30;;;;;;;;;;5036828;28;20052;-69
2023/06/29 02:43:37;;;;;;;15.45;6.93;;;;;;;;;;5036977;28;20013;-69
2023/06/29 02:46:02;;;;;;;12.52;7.40;;;;;;;;;;5053497;28;20095;-70
2023/06/29 02:48:28;;;;;;;15.10;6.93;;;;;;;;;;5040427;28;20029;-70
2023/06/29 02:50:53;;;;;;;14.85;7.55;;;;;;;;;;5055663;28;20538;-70
2023/06/29 02:53:18;;;;;;;9.50;7.32;;;;;;;;;;5046028;28;20079;-70
2023/06/29 02:55:44;;;;;;;11.20;7.00;;;;;;;;;;5057804;28;20037;-70
2023/06/29 02:58:09;;;;;;;11.68;7.50;;;;;;;;;;5023146;28;20024;-69
2023/06/29 03:00:35;;;;;;;12.27;7.90;;;;;;;;;;5037645;28;20033;-70
2023/06/29 03:03:00;;;;;;;19.15;6.97;;;;;;;;;;5036328;28;20063;-69
2023/06/29 03:05:26;;;;;;;9.45;6.50;;;;;;;;;;5047382;28;20092;-70
2023/06/29 03:07:51;;;;;;;11.98;6.85;;;;;;;;;;5038639;28;20024;-69
2023/06/29 03:10:17;;;;;;;15.07;7.03;;;;;;;;;;5019777;28;20767;-69
2023/06/29 03:12:42;;;;;;;10.65;7.00;;;;;;;;;;5050872;28;20033;-70
2023/06/29 03:15:08;;;;;;;11.45;6.88;;;;;;;;;;5055131;28;20056;-69
2023/06/29 03:17:33;;;;;;;8.50;6.90;;;;;;;;;;5041116;28;20037;-69
2023/06/29 03:19:59;;;;;;;8.85;7.10;;;;;;;;;;5038934;28;20047;-68
2023/06/29 03:22:27;;;;;;;13.13;7.22;;;;;;;;;;5039939;28;20024;-68
2023/06/29 03:24:53;;;;;;;7.15;6.45;;;;;;;;;;5047445;28;20071;-68
2023/06/29 03:27:19;;;;;;;12.15;7.43;;;;;;;;;;5053136;28;20025;-69
2023/06/29 03:29:47;;;;;;;10.25;6.78;;;;;;;;;;5022556;28;20032;-67
2023/06/29 03:32:12;;;;;;;16.48;6.88;;;;;;;;;;5052539;28;20139;-69
2023/06/29 03:34:38;;;;;;;11.68;6.82;;;;;;;;;;5054334;28;20087;-69
2023/06/29 03:37:03;;;;;;;15.65;7.20;;;;;;;;;;5027466;28;20048;-68
2023/06/29 03:39:29;;;;;;;13.52;7.10;;;;;;;;;;5038196;28;20535;-69
2023/06/29 03:41:54;;;;;;;8.88;6.93;;;;;;;;;;5045976;28;20041;-69
2023/06/29 03:44:20;;;;;;;13.52;7.78;;;;;;;;;;5043253;28;20036;-69
2023/06/29 03:46:45;;;;;;;16.10;6.68;;;;;;;;;;5031992;28;20045;-69
2023/06/29 03:49:10;;;;;;;17.50;6.80;;;;;;;;;;5057063;28;20024;-69
2023/06/29 03:51:36;;;;;;;15.30;7.07;;;;;;;;;;5054308;28;20164;-69
2023/06/29 03:54:01;;;;;;;24.13;7.85;;;;;;;;;;5021583;28;20117;-68
2023/06/29 03:56:27;;;;;;;16.45;6.88;;;;;;;;;;5027971;28;20033;-68
2023/06/29 03:58:52;;;;;;;13.55;7.18;;;;;;;;;;5030427;28;20028;-69
2023/06/29 04:01:18;;;;;;;17.27;7.68;;;;;;;;;;5031236;28;20613;-69
2023/06/29 04:03:43;;;;;;;15.07;7.38;;;;;;;;;;5048081;28;20512;-69
2023/06/29 04:06:08;;;;;;;11.98;7.30;;;;;;;;;;5023275;28;20041;-69
2023/06/29 04:08:34;;;;;;;12.35;7.72;;;;;;;;;;5033891;28;20025;-68
2023/06/29 04:10:59;;;;;;;15.55;7.05;;;;;;;;;;5054092;28;20495;-68
2023/06/29 04:13:25;;;;;;;9.00;7.22;;;;;;;;;;5007767;28;20223;-69
2023/06/29 04:15:50;;;;;;;13.90;7.57;;;;;;;;;;5030604;28;20128;-69
2023/06/29 04:18:15;;;;;;;10.80;7.22;;;;;;;;;;5052458;28;20031;-68
2023/06/29 04:20:41;;;;;;;11.88;7.22;;;;;;;;;;5050664;28;20057;-69
2023/06/29 04:23:06;;;;;;;15.60;7.63;;;;;;;;;;5034120;28;20397;-68
2023/06/29 04:25:33;;;;;;;11.85;6.93;;;;;;;;;;5051402;28;20037;-68
2023/06/29 04:27:59;;;;;;;15.20;7.93;;;;;;;;;;5021590;28;20584;-68
2023/06/29 04:30:24;;;;;;;11.90;7.10;;;;;;;;;;5054740;28;20079;-68
2023/06/29 04:32:49;;;;;;;11.60;7.68;;;;;;;;;;5043963;28;20037;-68
2023/06/29 04:35:15;;;;;;;8.73;6.70;;;;;;;;;;5041967;28;20072;-69
2023/06/29 04:37:41;;;;;;;12.80;7.30;;;;;;;;;;5027014;28;20138;-69
2023/06/29 04:40:09;;;;;;;15.85;7.20;;;;;;;;;;5053272;28;20067;-69
2023/06/29 04:42:43;;;;;;;12.13;7.18;;;;;;;;;;5031001;28;20081;-67
2023/06/29 04:45:12;;;;;;;12.20;7.07;;;;;;;;;;5051046;28;20044;-69
2023/06/29 04:47:40;;;;;;;11.43;7.35;;;;;;;;;;5019132;28;20024;-69
2023/06/29 04:50:07;;;;;;;12.90;7.45;;;;;;;;;;5050979;28;20025;-68
2023/06/29 04:52:36;;;;;;;13.32;7.00;;;;;;;;;;5031097;28;20401;-68
2023/06/29 04:55:06;;;;;;;13.18;7.72;;;;;;;;;;5033828;28;20016;-69
2023/06/29 04:57:31;;;;;;;9.48;7.03;;;;;;;;;;5054156;28;20108;-69
2023/06/29 04:59:57;;;;;;;23.80;8.52;;;;;;;;;;5007164;28;20117;-68
2023/06/29 05:02:22;;;;;;;13.63;7.55;;;;;;;;;;5041517;28;20032;-67
2023/06/29 05:04:49;;;;;;;8.65;7.00;;;;;;;;;;5038438;28;20025;-68
2023/06/29 05:07:15;;;;;;;13.35;7.25;;;;;;;;;;5028439;28;20048;-67
2023/06/29 05:09:40;;;;;;;15.10;7.10;;;;;;;;;;5047230;28;20033;-67
2023/06/29 05:12:07;;;;;;;15.88;7.50;;;;;;;;;;5035804;28;20041;-67
2023/06/29 05:14:32;;;;;;;20.35;7.25;;;;;;;;;;5043344;28;20033;-68
2023/06/29 05:16:58;;;;;;;13.25;7.13;;;;;;;;;;5036810;28;20048;-67
2023/06/29 05:19:23;;;;;;;12.90;7.35;;;;;;;;;;5046097;28;20414;-67
2023/06/29 05:21:48;;;;;;;7.47;6.78;;;;;;;;;;5038641;28;20044;-68
2023/06/29 05:24:14;;;;;;;11.38;7.15;;;;;;;;;;5054310;28;20470;-68
2023/06/29 05:26:40;;;;;;;11.80;6.65;;;;;;;;;;5050310;28;20510;-68
2023/06/29 05:29:05;;;;;;;11.85;7.28;;;;;;;;;;5024658;28;20034;-68
2023/06/29 05:31:30;;;;;;;11.82;7.18;;;;;;;;;;5048970;28;20049;-69
2023/06/29 05:33:56;;;;;;;13.35;7.03;;;;;;;;;;5040464;28;20029;-68
2023/06/29 05:36:21;;;;;;;12.65;6.80;;;;;;;;;;5021341;28;20033;-68
2023/06/29 05:38:47;;;;;;;16.10;7.45;;;;;;;;;;5033841;28;20479;-69
2023/06/29 05:41:12;;;;;;;14.70;7.50;;;;;;;;;;5048142;28;20417;-68
2023/06/29 05:43:38;;;;;;;11.18;7.68;;;;;;;;;;5048307;28;20036;-69
2023/06/29 05:46:03;;;;;;;18.73;7.70;;;;;;;;;;5038763;28;20059;-68
2023/06/29 05:48:28;;;;;;;10.50;6.97;;;;;;;;;;5034554;28;20037;-68
2023/06/29 05:50:54;;;;;;;8.88;7.20;;;;;;;;;;5049339;28;20040;-68
2023/06/29 05:53:19;;;;;;;15.23;7.43;;;;;;;;;;5047486;28;20075;-70
2023/06/29 05:55:45;;;;;;;13.13;7.55;;;;;;;;;;5044898;28;20025;-68
2023/06/29 05:58:10;;;;;;;16.25;7.15;;;;;;;;;;5024715;28;20038;-70
2023/06/29 06:00:35;;;;;;;11.07;7.03;;;;;;;;;;5038995;28;20041;-69
2023/06/29 06:03:01;;;;;;;12.50;7.05;;;;;;;;;;5027869;28;20087;-71
2023/06/29 06:05:27;;;;;;;20.23;7.68;;;;;;;;;;5020043;28;20418;-70
2023/06/29 06:07:52;;;;;;;11.75;6.47;;;;;;;;;;5042134;28;20029;-68
2023/06/29 06:10:18;;;;;;;12.55;7.68;;;;;;;;;;5038281;28;20056;-70
2023/06/29 06:12:43;;;;;;;9.40;6.65;;;;;;;;;;5055744;28;20097;-70
2023/06/29 06:15:11;;;;;;;13.48;7.28;;;;;;;;;;5033052;28;20106;-70
2023/06/29 06:17:37;;;;;;;12.85;6.75;;;;;;;;;;5055034;28;20036;-71
2023/06/29 06:20:05;;;;;;;15.52;7.13;;;;;;;;;;5030857;28;20029;-69
2023/06/29 06:22:30;;;;;;;11.15;7.25;;;;;;;;;;5020867;28;20401;-70
2023/06/29 06:24:56;;;;;;;12.32;7.53;;;;;;;;;;5038672;28;20024;-69
2023/06/29 06:27:21;;;;;;;13.80;7.38;;;;;;;;;;5047216;28;20028;-70
2023/06/29 06:29:47;;;;;;;9.10;7.10;;;;;;;;;;5046593;28;20360;-70
2023/06/29 06:32:12;;;;;;;12.90;7.10;;;;;;;;;;5034604;28;20041;-69
2023/06/29 06:34:38;;;;;;;15.95;6.40;;;;;;;;;;5041429;28;20369;-69
2023/06/29 06:37:04;;;;;;;15.52;6.97;;;;;;;;;;5034251;28;20437;-69
2023/06/29 06:39:32;;;;;;;10.68;7.00;;;;;;;;;;5056156;28;20029;-68
2023/06/29 06:41:59;;;;;;;14.02;7.32;;;;;;;;;;5046841;28;20061;-69
2023/06/29 06:44:25;;;;;;;12.77;7.18;;;;;;;;;;5051339;28;20040;-68
2023/06/29 06:46:50;;;;;;;9.73;6.85;;;;;;;;;;5055599;28;20045;-69
2023/06/29 06:49:16;;;;;;;10.60;7.13;;;;;;;;;;5041726;28;20025;-69
2023/06/29 06:51:41;;;;;;;15.55;7.50;;;;;;;;;;5035050;28;20056;-69
2023/06/29 06:54:07;;;;;;;9.60;7.07;;;;;;;;;;5044919;28;20092;-69
2023/06/29 06:56:32;;;;;;;19.20;9.95;;;;;;;;;;5040544;28;20033;-69
2023/06/29 06:58:58;;;;;;;11.13;6.72;;;;;;;;;;5055500;28;20037;-69
2023/06/29 07:01:24;;;;;;;11.55;6.63;;;;;;;;;;5017500;28;20041;-69
2023/06/29 07:03:51;;;;;;;16.85;7.10;;;;;;;;;;5040922;28;20415;-70
2023/06/29 07:06:17;;;;;;;13.40;7.63;;;;;;;;;;5040956;28;20132;-69
2023/06/29 07:08:43;;;;;;;11.00;6.63;;;;;;;;;;5053337;28;20390;-70
2023/06/29 07:11:08;;;;;;;12.07;7.53;;;;;;;;;;5041142;28;20087;-69
2023/06/29 07:13:33;;;;;;;9.73;6.75;;;;;;;;;;5023391;28;20055;-70
2023/06/29 07:15:59;;;;;;;22.17;7.88;;;;;;;;;;5051677;28;20041;-70
2023/06/29 07:18:24;;;;;;;15.00;7.13;;;;;;;;;;5024234;28;20029;-70
2023/06/29 07:20:50;;;;;;;10.35;7.07;;;;;;;;;;5040138;28;20043;-70
2023/06/29 07:23:16;;;;;;;9.48;6.97;;;;;;;;;;5036313;28;20029;-70
2023/06/29 07:25:42;;;;;;;14.80;7.68;;;;;;;;;;5054699;28;20052;-70
2023/06/29 07:28:07;;;;;;;10.95;7.28;;;;;;;;;;5062411;28;20079;-70
2023/06/29 07:30:33;;;;;;;19.35;7.32;;;;;;;;;;5048256;28;20113;-69
2023/06/29 07:32:59;;;;;;;11.15;7.20;;;;;;;;;;5038727;28;20033;-70
2023/06/29 07:35:24;;;;;;;14.68;7.28;;;;;;;;;;5037663;28;20052;-70
2023/06/29 07:37:49;;;;;;;32.40;7.47;;;;;;;;;;5048332;28;20025;-70
2023/06/29 07:40:15;;;;;;;13.57;7.28;;;;;;;;;;5054170;28;20063;-70
2023/06/29 07:42:40;;;;;;;19.52;7.05;;;;;;;;;;5044464;28;20539;-70
2023/06/29 07:45:06;;;;;;;17.08;7.38;;;;;;;;;;5038753;28;20025;-71
2023/06/29 07:47:32;;;;;;;16.63;7.60;;;;;;;;;;5028751;28;20039;-71
2023/06/29 07:49:57;;;;;;;13.77;6.90;;;;;;;;;;5005400;28;20438;-71
2023/06/29 07:52:24;;;;;;;12.98;7.53;;;;;;;;;;5021589;28;20116;-71
2023/06/29 07:54:50;;;;;;;11.27;7.13;;;;;;;;;;5035864;28;20115;-66
2023/06/29 07:57:15;;;;;;;19.80;7.47;;;;;;;;;;5037296;28;20056;-71
2023/06/29 07:59:41;;;;;;;10.30;7.22;;;;;;;;;;5032258;28;20033;-73
2023/06/29 08:02:07;;;;;;;16.25;7.03;;;;;;;;;;5035684;28;20048;-72
2023/06/29 08:04:33;;;;;;;18.55;7.35;;;;;;;;;;5036317;28;20025;-72
2023/06/29 08:06:58;;;;;;;17.80;7.13;;;;;;;;;;5052494;28;20083;-72
2023/06/29 08:09:24;;;;;;;15.13;6.70;;;;;;;;;;5041168;28;20112;-73
2023/06/29 08:11:50;;;;;;;15.57;7.30;;;;;;;;;;5032677;28;20044;-72
2023/06/29 08:14:15;;;;;;;15.30;7.43;;;;;;;;;;5037070;28;20088;-72
2023/06/29 08:16:41;;;;;;;12.57;7.05;;;;;;;;;;5039115;28;20044;-71
2023/06/29 08:19:06;;;;;;;16.02;7.20;;;;;;;;;;5038655;28;20032;-72
2023/06/29 08:21:31;;;;;;;14.93;7.32;;;;;;;;;;5038729;28;20573;-71
2023/06/29 08:23:57;;;;;;;17.90;6.95;;;;;;;;;;5043530;28;20385;-72
2023/06/29 08:26:24;;;;;;;11.85;7.63;;;;;;;;;;5039573;28;20040;-72
2023/06/29 08:28:50;;;;;;;10.30;7.05;;;;;;;;;;5050696;28;20052;-71
2023/06/29 08:31:15;;;;;;;12.63;6.70;;;;;;;;;;5037590;28;20049;-71
2023/06/29 08:33:41;;;;;;;9.60;6.85;;;;;;;;;;5049914;28;20100;-71
2023/06/29 08:36:06;;;;;;;9.98;7.07;;;;;;;;;;5046679;28;20112;-72
2023/06/29 08:38:32;;;;;;;8.32;7.07;;;;;;;;;;5033860;28;20501;-73
2023/06/29 08:40:59;;;;;;;14.70;7.57;;;;;;;;;;5033245;28;20040;-73
2023/06/29 08:43:24;;;;;;;15.75;7.13;;;;;;;;;;5036326;28;20025;-73
2023/06/29 08:45:50;;;;;;;7.88;6.93;;;;;;;;;;5020403;28;20037;-72
2023/06/29 08:48:18;;;;;;;16.75;7.53;;;;;;;;;;5038598;28;20502;-70
2023/06/29 08:50:51;;;;;;;8.15;6.82;;;;;;;;;;5030909;28;20141;-70
2023/06/29 08:53:17;;;;;;;12.35;7.85;;;;;;;;;;5038875;28;20137;-69
2023/06/29 08:55:43;;;;;;;10.77;7.20;;;;;;;;;;5030615;28;20053;-69
2023/06/29 08:58:08;;;;;;;14.98;7.43;;;;;;;;;;5040615;28;20051;-70
2023/06/29 09:00:35;;;;;;;14.40;7.22;;;;;;;;;;5022978;28;20033;-69
2023/06/29 09:03:03;;;;;;;9.82;7.15;;;;;;;;;;5030881;28;20036;-69
2023/06/29 09:05:29;;;;;;;18.70;7.30;;;;;;;;;;5052811;28;20048;-70
2023/06/29 09:07:54;;;;;;;14.20;7.22;;;;;;;;;;5033863;28;20021;-69
2023/06/29 09:10:21;;;;;;;9.30;7.15;;;;;;;;;;5037256;28;20041;-70
2023/06/29 09:12:47;;;;;;;10.18;6.95;;;;;;;;;;5031794;28;20048;-71
2023/06/29 09:15:14;;;;;;;10.77;6.93;;;;;;;;;;5054531;28;20521;-70
2023/06/29 09:17:45;;;;;;;12.43;7.50;;;;;;;;;;5054064;28;20025;-70
2023/06/29 09:20:15;;;;;;;11.02;7.22;;;;;;;;;;5052559;28;20172;-70
2023/06/29 09:22:43;;;;;;;12.95;7.57;;;;;;;;;;5033297;28;20073;-69
2023/06/29 09:25:13;;;;;;;11.70;7.30;;;;;;;;;;5030058;28;20024;-71
2023/06/29 09:27:38;;;;;;;13.80;7.65;;;;;;;;;;5033228;28;20487;-72
2023/06/29 09:30:05;;;;;;;13.43;7.70;;;;;;;;;;5056601;28;20094;-70
2023/06/29 09:32:30;;;;;;;11.77;7.32;;;;;;;;;;5056844;28;20025;-72
2023/06/29 09:35:08;;;;;;;12.57;7.47;;;;;;;;;;5038178;28;20039;-70
2023/06/29 09:37:33;;;;;;;9.10;7.22;;;;;;;;;;5035755;28;20029;-71
2023/06/29 09:39:59;;;;;;;10.45;7.40;;;;;;;;;;5037280;28;20021;-70
2023/06/29 09:42:28;;;;;;;13.73;7.28;;;;;;;;;;5052697;28;20478;-71
2023/06/29 09:44:55;;;;;;;7.97;7.25;;;;;;;;;;5056092;28;20025;-71
2023/06/29 09:47:21;;;;;;;13.02;6.90;;;;;;;;;;5047309;28;20125;-69
2023/06/29 09:49:47;;;;;;;12.45;7.50;;;;;;;;;;5051241;28;20025;-69
2023/06/29 09:52:15;;;;;;;10.30;7.20;;;;;;;;;;5043191;28;20521;-68
2023/06/29 09:54:40;;;;;;;11.05;6.53;;;;;;;;;;5056190;28;20032;-70
2023/06/29 09:57:07;;;;;;;8.18;6.65;;;;;;;;;;5049097;28;20047;-71
2023/06/29 09:59:41;;;;;;;13.68;6.80;;;;;;;;;;5036912;28;20541;-69
2023/06/29 10:02:13;;;;;;;10.88;6.72;;;;;;;;;;5017572;28;20076;-69
2023/06/29 10:04:40;;;;;;;11.57;6.80;;;;;;;;;;5042097;28;20027;-70
2023/06/29 10:07:09;;;;;;;10.68;7.50;;;;;;;;;;5053972;28;20029;-71
2023/06/29 10:09:39;;;;;;;10.98;7.50;;;;;;;;;;5040588;28;20033;-68
2023/06/29 10:12:07;;;;;;;8.80;6.80;;;;;;;;;;5038458;28;20111;-69
2023/06/29 10:14:34;;;;;;;7.70;6.55;;;;;;;;;;5052393;28;20462;-70
2023/06/29 10:17:02;;;;;;;9.35;6.82;;;;;;;;;;5057592;28;20033;-69
2023/06/29 10:19:31;;;;;;;15.02;7.60;;;;;;;;;;5051289;28;20033;-70
2023/06/29 10:22:05;;;;;;;14.48;6.40;;;;;;;;;;5056053;28;20402;-69
2023/06/29 10:24:45;;;;;;;10.38;6.50;;;;;;;;;;5041583;28;20029;-71
2023/06/29 10:27:12;;;;;;;11.85;7.03;;;;;;;;;;5033316;28;20523;-70
2023/06/29 10:29:45;;;;;;;8.95;6.68;;;;;;;;;;5053705;28;20112;-71
2023/06/29 10:32:30;;;;;;;7.18;6.43;;;;;;;;;;5049418;28;20049;-71
2023/06/29 10:35:01;;;;;;;8.90;6.82;;;;;;;;;;5050837;28;20021;-70
2023/06/29 10:37:31;;;;;;;;;;;;;;;;;;5046270;28;20048;-72
2023/06/29 10:39:58;;;;;;;7.95;6.80;;;;;;;;;;5053583;28;19912;-71
2023/06/29 10:42:23;;;;;;;7.53;5.97;;;;;;;;;;5053957;28;20028;-70
2023/06/29 10:44:48;;;;;;;10.70;6.78;;;;;;;;;;5022822;28;20033;-71
2023/06/29 10:47:38;;;;;;;12.55;7.10;;;;;;;;;;5055466;28;20037;-72
2023/06/29 10:50:09;;;;;;;10.38;7.13;;;;;;;;;;5056605;28;20120;-71
2023/06/29 10:52:38;;;;;;;12.25;7.13;;;;;;;;;;5064165;28;20032;-70
2023/06/29 10:55:20;;;;;;;11.55;6.93;;;;;;;;;;5043110;28;20049;-71
2023/06/29 10:57:47;;;;;;;8.95;7.00;;;;;;;;;;5023730;28;20083;-71
2023/06/29 11:00:15;;;;;;;12.38;7.35;;;;;;;;;;5036469;28;20041;-71
2023/06/29 11:02:44;;;;;;;9.45;6.75;;;;;;;;;;5015211;28;20040;-72
2023/06/29 11:05:17;;;;;;;10.48;6.97;;;;;;;;;;5051921;28;20075;-72
2023/06/29 11:07:52;;;;;;;8.65;6.80;;;;;;;;;;5036569;28;20060;-71
2023/06/29 11:10:22;;;;;;;10.38;7.32;;;;;;;;;;5054966;28;20101;-72
2023/06/29 11:12:54;;;;;;;7.30;6.35;;;;;;;;;;5034331;28;20032;-69
2023/06/29 11:15:21;;;;;;;9.10;6.88;;;;;;;;;;5050892;28;20110;-71
2023/06/29 11:17:49;;;;;;;11.35;6.82;;;;;;;;;;5056867;28;20167;-69
2023/06/29 11:20:17;;;;;;;9.00;6.85;;;;;;;;;;5044770;28;20559;-70
2023/06/29 11:22:43;;;;;;;10.60;7.00;;;;;;;;;;5035721;28;20021;-69
2023/06/29 11:25:14;;;;;;;11.18;6.78;;;;;;;;;;5045067;28;20632;-69
2023/06/29 11:27:41;;;;;;;9.97;6.83;;;;;;;;;;5055464;28;20061;-72
2023/06/29 11:30:09;;;;;;;7.53;6.47;;;;;;;;;;5032851;28;20482;-69
2023/06/29 11:32:35;;;;;;;10.23;7.32;;;;;;;;;;5039111;28;20471;-69
2023/06/29 11:35:01;;;;;;;8.90;7.40;;;;;;;;;;5043849;28;20099;-69
2023/06/29 11:37:27;;;;;;;11.18;7.07;;;;;;;;;;5048016;28;20067;-67
2023/06/29 11:39:53;;;;;;;14.80;7.95;;;;;;;;;;5048754;28;20059;-70
2023/06/29 11:42:23;;;;;;;8.73;7.03;;;;;;;;;;5039238;28;20155;-70
2023/06/29 11:45:09;;;;;;;8.70;7.00;;;;;;;;;;5054827;28;20101;-70
2023/06/29 11:47:35;;;;;;;16.50;8.30;;;;;;;;;;5027986;28;20438;-71
2023/06/29 11:50:03;;;;;;;9.85;6.47;;;;;;;;;;5032435;28;20033;-70
2023/06/29 11:52:31;;;;;;;10.65;7.45;;;;;;;;;;5051813;28;20536;-71
2023/06/29 11:54:58;;;;;;;12.77;7.35;;;;;;;;;;5047608;28;20031;-72
2023/06/29 11:57:23;;;;;;;9.50;7.70;;;;;;;;;;5023217;28;20028;-72
2023/06/29 11:59:48;;;;;;;11.40;7.25;;;;;;;;;;5032674;28;20033;-70
2023/06/29 12:02:15;;;;;;;16.15;7.57;;;;;;;;;;5035849;28;20041;-70
2023/06/29 12:04:54;;;;;;;11.57;7.63;;;;;;;;;;5037747;28;20110;-71
2023/06/29 12:07:36;;;;;;;7.93;6.50;;;;;;;;;;5042721;28;20040;-70
2023/06/29 12:10:13;;;;;;;9.82;7.18;;;;;;;;;;5053101;28;20473;-72
2023/06/29 12:12:42;;;;;;;9.35;7.22;;;;;;;;;;5050478;28;20032;-70
2023/06/29 12:15:15;;;;;;;11.95;6.63;;;;;;;;;;5050259;28;20048;-72
2023/06/29 12:17:42;;;;;;;11.50;7.15;;;;;;;;;;5035055;28;20032;-71
2023/06/29 12:20:25;;;;;;;8.63;7.05;;;;;;;;;;5055547;28;20070;-71
2023/06/29 12:22:54;;;;;;;13.63;7.70;;;;;;;;;;5052043;28;20568;-70
2023/06/29 12:25:21;;;;;;;11.82;7.15;;;;;;;;;;5052136;28;20160;-71
2023/06/29 12:27:48;;;;;;;12.15;7.63;;;;;;;;;;5056213;28;20021;-73
2023/06/29 12:30:16;;;;;;;16.02;7.07;;;;;;;;;;5023181;28;20500;-70
2023/06/29 12:32:42;;;;;;;27.83;8.43;;;;;;;;;;5054440;28;20104;-71
2023/06/29 12:35:08;;;;;;;11.60;7.28;;;;;;;;;;5032999;28;20068;-70
2023/06/29 12:37:34;;;;;;;11.02;7.22;;;;;;;;;;5051973;28;20437;-70
2023/06/29 12:39:59;;;;;;;8.68;7.30;;;;;;;;;;5038681;28;20021;-70
2023/06/29 12:42:25;;;;;;;10.20;6.97;;;;;;;;;;5058892;28;20029;-71
2023/06/29 12:44:50;;;;;;;9.43;7.35;;;;;;;;;;5055487;28;20029;-69
2023/06/29 12:47:18;;;;;;;11.98;7.38;;;;;;;;;;5053345;28;20029;-70
2023/06/29 12:49:46;;;;;;;11.15;7.68;;;;;;;;;;5053856;28;20501;-71
2023/06/29 12:52:13;;;;;;;11.45;7.63;;;;;;;;;;5044500;28;20513;-70
2023/06/29 12:54:39;;;;;;;13.57;6.65;;;;;;;;;;5035826;28;20029;-69
2023/06/29 12:57:05;;;;;;;12.57;7.18;;;;;;;;;;5054098;28;20151;-71
2023/06/29 12:59:30;;;;;;;10.15;6.78;;;;;;;;;;5039133;28;20533;-70
2023/06/29 13:01:59;;;;;;;7.93;6.43;;;;;;;;;;5021264;28;20037;-70
2023/06/29 13:04:24;;;;;;;12.45;6.75;;;;;;;;;;5033399;28;20033;-70
2023/06/29 13:06:53;;;;;;;8.70;6.68;;;;;;;;;;5028714;28;20262;-69
2023/06/29 13:09:18;;;;;;;10.95;7.18;;;;;;;;;;5040202;28;20036;-72
2023/06/29 13:11:44;;;;;;;10.02;6.70;;;;;;;;;;5034308;28;20037;-73
2023/06/29 13:14:09;;;;;;;11.32;7.13;;;;;;;;;;5037407;28;20039;-73
2023/06/29 13:16:35;;;;;;;11.63;6.80;;;;;;;;;;5017831;28;20507;-72
2023/06/29 13:19:00;;;;;;;12.77;6.63;;;;;;;;;;5050378;28;20040;-73
2023/06/29 13:21:25;;;;;;;11.93;7.10;;;;;;;;;;5042691;28;20071;-71
2023/06/29 13:23:51;;;;;;;12.70;7.43;;;;;;;;;;5050077;28;20026;-71
2023/06/29 13:26:16;;;;;;;9.02;6.80;;;;;;;;;;5035653;28;20041;-70
2023/06/29 13:28:42;;;;;;;8.50;6.95;;;;;;;;;;5034069;28;20509;-71
2023/06/29 13:31:07;;;;;;;12.77;7.00;;;;;;;;;;5039072;28;20041;-70
2023/06/29 13:33:32;;;;;;;9.65;6.78;;;;;;;;;;5060187;28;20036;-71
2023/06/29 13:35:58;;;;;;;10.80;7.25;;;;;;;;;;5028991;28;20061;-70
2023/06/29 13:38:23;;;;;;;9.95;7.05;;;;;;;;;;5044827;28;20142;-71
2023/06/29 13:40:49;;;;;;;8.50;6.15;;;;;;;;;;5047485;28;20036;-69
2023/06/29 13:43:14;;;;;;;13.07;6.15;;;;;;;;;;5022329;28;20037;-70
2023/06/29 13:45:39;;;;;;;25.30;7.78;;;;;;;;;;5052240;28;20625;-69
2023/06/29 13:48:05;;;;;;;9.18;6.28;;;;;;;;;;5015098;28;20128;-70
2023/06/29 13:50:30;;;;;;;11.80;6.68;;;;;;;;;;5034256;28;20124;-70
2023/06/29 13:52:56;;;;;;;12.60;6.65;;;;;;;;;;5021524;28;20013;-71
2023/06/29 13:55:22;;;;;;;9.85;6.00;;;;;;;;;;5033743;28;20532;-70
2023/06/29 13:57:48;;;;;;;11.50;7.03;;;;;;;;;;5045524;28;20040;-70
2023/06/29 14:00:14;;;;;;;9.55;6.05;;;;;;;;;;5051051;28;20402;-72
2023/06/29 14:02:40;;;;;;;7.28;6.10;;;;;;;;;;5040344;28;20467;-72
2023/06/29 14:05:06;;;;;;;8.45;6.57;;;;;;;;;;5045625;28;20112;-71
2023/06/29 14:07:31;;;;;;;8.15;6.07;;;;;;;;;;5042355;28;20032;-70
2023/06/29 14:09:56;;;;;;;11.90;6.72;;;;;;;;;;5034335;28;20028;-70
2023/06/29 14:12:22;;;;;;;7.35;6.10;;;;;;;;;;5042773;28;20028;-73
2023/06/29 14:14:48;;;;;;;9.32;6.07;;;;;;;;;;5038898;28;20036;-70
2023/06/29 14:17:18;;;;;;;8.20;6.50;;;;;;;;;;5055821;28;20053;-74
2023/06/29 14:19:44;;;;;;;9.93;5.85;;;;;;;;;;5053884;28;20029;-71
2023/06/29 14:22:11;;;;;;;9.40;6.00;;;;;;;;;;5035496;28;20041;-72
2023/06/29 14:24:36;;;;;;;16.17;6.38;;;;;;;;;;5043164;28;20482;-71
2023/06/29 14:27:02;;;;;;;14.45;6.25;;;;;;;;;;5030047;28;20037;-72
2023/06/29 14:29:28;;;;;;;10.30;5.95;;;;;;;;;;5036961;28;20601;-72
2023/06/29 14:31:53;;;;;;;13.48;5.85;;;;;;;;;;5039135;28;20037;-71